createdAt,value
2022-10-11T00:01:42.834Z,97981.69
2022-10-11T00:04:14.160Z,97973.91
2022-10-11T00:06:43.953Z,97980.00
2022-10-11T00:09:16.308Z,97983.38
2022-10-11T00:11:45.846Z,97980.38
2022-10-11T00:14:15.540Z,97976.59
2022-10-11T00:16:45.543Z,97981.00
2022-10-11T00:19:15.007Z,97978.84
2022-10-11T00:21:44.308Z,97974.06
2022-10-11T00:24:16.163Z,97972.81
2022-10-11T00:26:47.118Z,97977.66
2022-10-11T00:29:16.493Z,97974.47
2022-10-11T00:31:48.391Z,97972.84
2022-10-11T00:34:18.404Z,97972.81
2022-10-11T00:36:48.548Z,97965.16
2022-10-11T00:39:21.203Z,97967.41
2022-10-11T00:41:51.398Z,97957.22
2022-10-11T00:44:26.111Z,97957.41
2022-10-11T00:46:58.522Z,97955.28
2022-10-11T00:49:35.130Z,97967.22
2022-10-11T00:52:06.012Z,97960.16
2022-10-11T00:54:38.580Z,97958.56
2022-10-11T00:57:09.880Z,97954.34
2022-10-11T00:59:41.679Z,97963.59
2022-10-11T01:02:11.707Z,97965.53
2022-10-11T01:04:41.930Z,97956.25
2022-10-11T01:07:11.865Z,97958.94
2022-10-11T01:09:42.572Z,97966.25
2022-10-11T01:12:17.704Z,97970.94
2022-10-11T01:15:05.605Z,97969.84
2022-10-11T01:17:41.278Z,97972.41
2022-10-11T01:20:41.821Z,97968.34
2022-10-11T01:23:42.628Z,97963.47
2022-10-11T01:26:50.987Z,97960.53
2022-10-11T01:29:30.402Z,97969.91
2022-10-11T01:32:09.927Z,97963.78
2022-10-11T01:34:45.386Z,97969.69
2022-10-11T01:37:16.586Z,97959.34
2022-10-11T01:39:49.236Z,97958.13
2022-10-11T01:42:19.661Z,97955.31
2022-10-11T01:44:50.346Z,97957.19
2022-10-11T01:47:23.314Z,97966.28
2022-10-11T01:49:59.134Z,97973.91
2022-10-11T01:52:31.407Z,97959.53
2022-10-11T01:55:14.595Z,97950.09
2022-10-11T01:57:52.719Z,97962.88
2022-10-11T02:00:23.883Z,97954.66
2022-10-11T02:03:13.863Z,97956.88
2022-10-11T02:05:48.386Z,97961.13
2022-10-11T02:08:20.690Z,97964.91
2022-10-11T02:10:55.131Z,97957.28
2022-10-11T02:13:27.457Z,97956.34
2022-10-11T02:15:59.938Z,97956.44
2022-10-11T02:18:34.222Z,97953.59
2022-10-11T02:21:06.749Z,97963.44
2022-10-11T02:23:40.939Z,97952.66
2022-10-11T02:26:11.151Z,97961.31
2022-10-11T02:28:42.796Z,97957.53
2022-10-11T02:31:13.504Z,97970.50
2022-10-11T02:33:48.367Z,97964.97
2022-10-11T02:36:22.009Z,97973.56
2022-10-11T02:38:54.586Z,97972.84
2022-10-11T02:41:26.882Z,97982.78
2022-10-11T02:44:00.808Z,97979.66
2022-10-11T02:46:31.493Z,97979.91
2022-10-11T02:49:03.209Z,97986.53
2022-10-11T02:51:33.238Z,97981.19
2022-10-11T02:54:02.558Z,97978.09
2022-10-11T02:56:31.704Z,97977.84
2022-10-11T02:59:00.947Z,97978.88
2022-10-11T03:01:30.161Z,97981.44
2022-10-11T03:03:59.225Z,97989.31
2022-10-11T03:06:34.065Z,97989.72
2022-10-11T03:09:03.221Z,97987.19
2022-10-11T03:11:33.448Z,97982.78
2022-10-11T03:14:03.406Z,97985.59
2022-10-11T03:16:32.496Z,97988.41
2022-10-11T03:19:01.693Z,97980.06
2022-10-11T03:21:32.629Z,97989.78
2022-10-11T03:24:01.958Z,97995.63
2022-10-11T03:26:31.288Z,97995.66
2022-10-11T03:29:00.491Z,97993.13
2022-10-11T03:31:29.690Z,98001.47
2022-10-11T03:33:59.107Z,98000.97
2022-10-11T03:36:28.172Z,98006.16
2022-10-11T03:38:59.135Z,98014.16
2022-10-11T03:41:28.225Z,98008.44
2022-10-11T03:43:57.723Z,98000.75
2022-10-11T03:46:26.953Z,98004.03
2022-10-11T03:48:56.005Z,98007.19
2022-10-11T03:51:25.330Z,98006.13
2022-10-11T03:53:54.684Z,98013.31
2022-10-11T03:56:25.208Z,98009.50
2022-10-11T03:58:54.433Z,98012.09
2022-10-11T04:01:23.542Z,98017.41
2022-10-11T04:03:52.487Z,98012.00
2022-10-11T04:06:21.449Z,98007.78
2022-10-11T04:08:52.762Z,98018.56
2022-10-11T04:11:23.345Z,98012.81
2022-10-11T04:13:54.987Z,98023.22
2022-10-11T04:16:24.254Z,98021.75
2022-10-11T04:18:53.228Z,98019.66
2022-10-11T04:21:22.338Z,98022.66
2022-10-11T04:23:53.104Z,98030.13
2022-10-11T04:26:24.293Z,98023.69
2022-10-11T04:28:56.040Z,98025.00
2022-10-11T04:31:25.269Z,98040.59
2022-10-11T04:33:54.427Z,98033.03
2022-10-11T04:36:23.623Z,98041.63
2022-10-11T04:38:52.794Z,98041.91
2022-10-11T04:41:22.215Z,98051.16
2022-10-11T04:43:51.386Z,98042.91
2022-10-11T04:46:21.878Z,98041.06
2022-10-11T05:12:06.512Z,98053.56
2022-10-11T05:14:35.687Z,98055.28
2022-10-11T05:17:05.098Z,98061.75
2022-10-11T05:19:34.689Z,98066.72
2022-10-11T05:22:03.923Z,98054.50
2022-10-11T05:24:33.272Z,98065.75
2022-10-11T05:27:03.506Z,98062.88
2022-10-11T05:29:34.064Z,98074.03
2022-10-11T05:32:03.364Z,98070.06
2022-10-11T05:34:32.524Z,98076.69
2022-10-11T05:37:01.708Z,98072.31
2022-10-11T05:39:31.977Z,98078.78
2022-10-11T05:42:01.170Z,98074.59
2022-10-11T05:44:30.292Z,98085.81
2022-10-11T05:47:00.863Z,98081.13
2022-10-11T05:49:30.071Z,98079.47
2022-10-11T05:51:59.494Z,98091.03
2022-10-11T05:54:32.467Z,98093.84
2022-10-11T05:57:02.211Z,98082.75
2022-10-11T05:59:31.899Z,98091.84
2022-10-11T06:02:02.515Z,98098.63
2022-10-11T06:04:31.633Z,98101.34
2022-10-11T06:07:00.873Z,98096.16
2022-10-11T06:09:30.027Z,98102.94
2022-10-11T06:12:00.451Z,98100.28
2022-10-11T06:14:29.855Z,98105.72
2022-10-11T06:16:59.021Z,98108.00
2022-10-11T06:19:29.981Z,98108.91
2022-10-11T06:21:59.080Z,98116.19
2022-10-11T06:24:28.426Z,98118.34
2022-10-11T06:26:57.571Z,98129.50
2022-10-11T06:29:26.781Z,98123.88
2022-10-11T06:31:56.206Z,98127.59
2022-10-11T06:34:25.543Z,98130.63
2022-10-11T06:36:56.388Z,98136.94
2022-10-11T06:39:25.969Z,98134.63
2022-10-11T06:41:55.253Z,98140.72
2022-10-11T06:44:24.883Z,98141.66
2022-10-11T06:46:54.146Z,98142.84
2022-10-11T06:49:23.733Z,98148.84
2022-10-11T06:51:52.890Z,98145.13
2022-10-11T06:54:23.468Z,98138.56
2022-10-11T06:56:52.697Z,98152.09
2022-10-11T06:59:22.134Z,98153.53
2022-10-11T07:01:51.366Z,98151.16
2022-10-11T07:04:20.418Z,98152.72
2022-10-11T07:06:49.552Z,98147.97
2022-10-11T07:09:18.794Z,98150.47
2022-10-11T07:11:49.478Z,98155.69
2022-10-11T07:14:19.005Z,98155.03
2022-10-11T07:16:48.069Z,98158.34
2022-10-11T07:19:17.274Z,98158.91
2022-10-11T07:21:46.465Z,98159.41
2022-10-11T07:24:15.699Z,98159.69
2022-10-11T07:26:44.998Z,98163.09
2022-10-11T07:29:15.905Z,98157.84
2022-10-11T07:31:45.274Z,98154.34
2022-10-11T07:34:17.545Z,98154.78
2022-10-11T07:36:46.911Z,98162.91
2022-10-11T07:39:16.621Z,98163.50
2022-10-11T07:41:46.212Z,98161.56
2022-10-11T07:44:16.977Z,98160.50
2022-10-11T07:46:46.271Z,98173.19
2022-10-11T07:49:15.394Z,98169.00
2022-10-11T07:51:44.530Z,98170.91
2022-10-11T07:54:13.712Z,98167.44
2022-10-11T07:56:42.567Z,98172.44
2022-10-11T07:59:13.184Z,98173.34
2022-10-11T08:01:43.984Z,98181.38
2022-10-11T08:04:13.272Z,98169.63
2022-10-11T08:06:42.597Z,98181.31
2022-10-11T08:09:12.829Z,98180.00
2022-10-11T08:11:42.166Z,98187.59
2022-10-11T08:14:11.471Z,98185.28
2022-10-11T08:16:42.563Z,98183.91
2022-10-11T08:19:12.314Z,98177.59
2022-10-11T08:21:41.666Z,98187.81
2022-10-11T08:24:13.928Z,98186.91
2022-10-11T08:26:43.584Z,98193.63
2022-10-11T08:29:14.486Z,98187.44
2022-10-11T08:31:45.933Z,98192.75
2022-10-11T08:34:15.450Z,98198.22
2022-10-11T08:36:45.132Z,98202.00
2022-10-11T08:39:14.467Z,98201.19
2022-10-11T08:41:47.284Z,98198.16
2022-10-11T08:45:05.404Z,98198.50
2022-10-11T08:47:32.178Z,98201.03
2022-10-11T08:50:02.060Z,98200.06
2022-10-11T08:52:42.042Z,98197.75
2022-10-11T08:55:19.977Z,98202.06
2022-10-11T08:57:54.559Z,98201.16
2022-10-11T09:00:24.618Z,98201.72
2022-10-11T09:03:08.624Z,98207.56
2022-10-11T09:05:45.160Z,98199.81
2022-10-11T09:08:22.888Z,98211.69
2022-10-11T09:11:01.394Z,98207.38
2022-10-11T09:13:52.645Z,98205.31
2022-10-11T09:16:28.687Z,98197.31
2022-10-11T09:19:14.533Z,98200.75
2022-10-11T09:21:48.832Z,98205.53
2022-10-11T09:24:45.740Z,98198.16
2022-10-11T09:27:33.030Z,98196.38
2022-10-11T09:30:14.555Z,98199.94
2022-10-11T09:32:45.912Z,98197.53
2022-10-11T09:35:18.693Z,98200.72
2022-10-11T09:37:53.915Z,98195.69
2022-10-11T09:40:40.507Z,98203.53
2022-10-11T09:43:14.306Z,98206.38
2022-10-11T09:45:49.222Z,98201.47
2022-10-11T09:48:23.328Z,98200.88
2022-10-11T09:50:55.591Z,98205.19
2022-10-11T09:53:51.257Z,98206.50
2022-10-11T09:56:20.708Z,98202.91
2022-10-11T09:58:50.307Z,98210.44
2022-10-11T10:01:28.276Z,98204.59
2022-10-11T10:04:08.056Z,98206.09
2022-10-11T10:06:39.456Z,98203.94
2022-10-11T10:09:30.229Z,98200.06
2022-10-11T10:12:00.256Z,98208.09
2022-10-11T10:14:30.720Z,98210.94
2022-10-11T10:17:03.155Z,98203.78
2022-10-11T10:19:41.107Z,98195.47
2022-10-11T10:22:20.963Z,98199.13
2022-10-11T10:24:51.677Z,98200.41
2022-10-11T10:27:23.459Z,98205.78
2022-10-11T10:30:14.351Z,98200.69
2022-10-11T10:32:49.173Z,98199.28
2022-10-11T10:35:31.899Z,98206.13
2022-10-11T10:38:13.607Z,98202.03
2022-10-11T10:40:45.521Z,98199.38
2022-10-11T10:43:19.163Z,98203.97
2022-10-11T10:46:21.482Z,98196.91
2022-10-11T10:51:53.482Z,98194.94
2022-10-11T10:54:36.353Z,98203.00
2022-10-11T10:57:11.525Z,98198.97
2022-10-11T10:59:56.665Z,98200.25
2022-10-11T11:02:47.180Z,98194.31
2022-10-11T11:05:25.095Z,98194.00
2022-10-11T11:07:59.282Z,98183.88
2022-10-11T11:10:35.731Z,98183.94
2022-10-11T11:13:17.061Z,98178.63
2022-10-11T11:15:51.646Z,98186.94
2022-10-11T11:18:29.943Z,98181.16
2022-10-11T11:21:16.495Z,98177.56
2022-10-11T11:23:54.025Z,98180.34
2022-10-11T11:26:30.122Z,98174.31
2022-10-11T11:29:17.009Z,98174.00
2022-10-11T11:31:56.094Z,98172.63
2022-10-11T11:34:27.340Z,98170.00
2022-10-11T11:36:58.680Z,98161.28
2022-10-11T11:39:31.054Z,98158.09
2022-10-11T11:42:06.244Z,98157.16
2022-10-11T11:44:39.317Z,98164.16
2022-10-11T11:47:12.202Z,98151.75
2022-10-11T11:52:18.256Z,98139.97
2022-10-11T11:54:52.261Z,98154.47
2022-10-11T11:57:32.960Z,98145.41
2022-10-11T12:00:08.337Z,98149.88
2022-10-11T12:02:46.067Z,98141.38
2022-10-11T12:05:18.716Z,98142.25
2022-10-11T12:07:55.092Z,98129.06
2022-10-11T12:10:31.729Z,98141.84
2022-10-11T12:13:32.116Z,98143.69
2022-10-11T12:16:11.058Z,98133.41
2022-10-11T12:18:53.689Z,98135.09
2022-10-11T12:21:31.501Z,98128.16
2022-10-11T12:24:01.551Z,98125.72
2022-10-11T12:26:42.970Z,98119.63
2022-10-11T12:29:55.373Z,98118.81
2022-10-11T12:32:52.679Z,98126.13
2022-10-11T12:36:04.074Z,98132.78
2022-10-11T12:38:39.786Z,98125.91
2022-10-11T12:41:53.763Z,98117.34
2022-10-11T12:44:26.363Z,98124.25
2022-10-11T12:47:21.395Z,98119.34
2022-10-11T12:50:05.132Z,98121.66
2022-10-11T12:52:40.549Z,98113.16
2022-10-11T12:55:28.002Z,98113.63
2022-10-11T12:58:23.344Z,98122.72
2022-10-11T13:01:29.442Z,98113.25
2022-10-11T13:04:06.850Z,98123.38
2022-10-11T13:06:40.795Z,98110.88
2022-10-11T13:09:18.955Z,98114.16
2022-10-11T13:11:52.119Z,98115.84
2022-10-11T13:14:22.995Z,98113.03
2022-10-11T13:17:00.401Z,98113.31
2022-10-11T13:19:31.899Z,98113.13
2022-10-11T13:22:03.677Z,98118.19
2022-10-11T13:24:39.195Z,98116.34
2022-10-11T13:27:09.475Z,98110.75
2022-10-11T13:29:40.577Z,98113.03
2022-10-11T13:32:14.219Z,98107.50
2022-10-11T13:34:48.205Z,98110.28
2022-10-11T13:37:19.092Z,98116.59
2022-10-11T13:39:49.588Z,98118.03
2022-10-11T13:42:19.817Z,98118.94
2022-10-11T13:44:49.609Z,98114.72
2022-10-11T13:47:24.375Z,98115.94
2022-10-11T13:50:09.341Z,98119.38
2022-10-11T13:52:55.319Z,98117.59
2022-10-11T13:55:26.938Z,98116.38
2022-10-11T13:57:56.918Z,98124.56
2022-10-11T14:00:30.146Z,98119.22
2022-10-11T14:03:02.306Z,98114.19
2022-10-11T14:05:36.346Z,98112.03
2022-10-11T14:08:08.114Z,98113.94
2022-10-11T14:10:37.520Z,98115.50
2022-10-11T14:13:18.999Z,98109.16
2022-10-11T14:15:48.196Z,98104.75
2022-10-11T14:18:43.641Z,98110.34
2022-10-11T14:21:34.630Z,98107.75
2022-10-11T14:24:06.216Z,98108.75
2022-10-11T14:26:37.414Z,98106.78
2022-10-11T14:29:09.957Z,98105.19
2022-10-11T14:31:42.021Z,98109.78
2022-10-11T14:34:17.850Z,98110.69
2022-10-11T14:36:49.186Z,98107.56
2022-10-11T14:39:20.532Z,98116.34
2022-10-11T14:41:49.887Z,98115.13
2022-10-11T14:44:20.762Z,98119.16
2022-10-11T14:46:52.468Z,98112.28
2022-10-11T14:49:26.305Z,98116.25
2022-10-11T14:51:59.161Z,98114.88
2022-10-11T14:54:29.898Z,98112.88
2022-10-11T14:57:00.869Z,98114.88
2022-10-11T14:59:34.247Z,98113.97
2022-10-11T15:02:03.969Z,98122.38
2022-10-11T15:04:33.354Z,98119.03
2022-10-11T15:07:04.667Z,98126.34
2022-10-11T15:09:34.196Z,98134.88
2022-10-11T15:12:05.121Z,98132.88
2022-10-11T15:14:34.552Z,98126.31
2022-10-11T15:17:03.766Z,98120.44
2022-10-11T15:19:33.312Z,98129.63
2022-10-11T15:22:06.043Z,98126.25
2022-10-11T15:24:36.164Z,98130.16
2022-10-11T15:27:05.422Z,98126.69
2022-10-11T15:29:45.902Z,98134.19
2022-10-11T15:32:15.155Z,98143.78
2022-10-11T15:34:44.334Z,98127.53
2022-10-11T15:37:15.044Z,98130.28
2022-10-11T15:39:44.670Z,98134.34
2022-10-11T15:42:13.884Z,98136.72
2022-10-11T15:44:43.159Z,98136.59
2022-10-11T15:47:13.118Z,98141.47
2022-10-11T15:49:42.346Z,98141.09
2022-10-11T15:52:13.101Z,98145.56
2022-10-11T15:54:43.456Z,98145.34
2022-10-11T15:57:12.798Z,98148.66
2022-10-11T15:59:42.216Z,98149.38
2022-10-11T16:02:15.730Z,98158.53
2022-10-11T16:04:45.125Z,98157.56
2022-10-11T16:07:15.796Z,98156.41
2022-10-11T16:09:45.043Z,98155.31
2022-10-11T16:12:14.535Z,98162.38
2022-10-11T16:14:47.047Z,98164.91
2022-10-11T16:17:16.961Z,98170.66
2022-10-11T16:19:46.232Z,98166.25
2022-10-11T16:22:16.524Z,98177.56
2022-10-11T16:24:45.752Z,98175.59
2022-10-11T16:27:18.665Z,98175.38
2022-10-11T16:29:48.346Z,98177.59
2022-10-11T16:32:20.790Z,98176.63
2022-10-11T16:34:50.273Z,98183.19
2022-10-11T16:37:21.143Z,98183.19
2022-10-11T16:39:53.587Z,98188.00
2022-10-11T16:42:23.324Z,98183.38
2022-10-11T16:44:52.686Z,98194.91
2022-10-11T16:47:22.159Z,98193.03
2022-10-11T16:49:53.206Z,98196.22
2022-10-11T16:52:23.958Z,98195.34
2022-10-11T16:54:53.496Z,98205.53
2022-10-11T16:57:22.929Z,98206.53
2022-10-11T16:59:52.179Z,98207.09
2022-10-11T17:02:23.013Z,98211.09
2022-10-11T17:04:54.009Z,98214.19
2022-10-11T17:07:25.062Z,98217.34
2022-10-11T17:09:54.352Z,98225.81
2022-10-11T17:12:25.044Z,98226.34
2022-10-11T17:14:54.630Z,98230.19
2022-10-11T17:17:24.649Z,98229.84
2022-10-11T17:19:53.915Z,98229.84
2022-10-11T17:22:24.642Z,98232.16
2022-10-11T17:24:53.833Z,98235.22
2022-10-11T17:27:22.981Z,98241.47
2022-10-11T17:29:52.571Z,98236.41
2022-10-11T17:32:22.005Z,98239.91
2022-10-11T17:34:51.150Z,98237.25
2022-10-11T17:37:20.847Z,98240.78
2022-10-11T17:39:51.660Z,98247.28
2022-10-11T17:42:21.105Z,98242.53
2022-10-11T17:44:50.307Z,98252.06
2022-10-11T17:47:19.433Z,98245.13
2022-10-11T17:49:48.931Z,98251.56
2022-10-11T17:52:18.163Z,98258.00
2022-10-11T17:54:49.653Z,98270.75
2022-10-11T17:57:20.492Z,98254.50
2022-10-11T17:59:50.056Z,98263.91
2022-10-11T18:02:20.615Z,98262.69
2022-10-11T18:04:49.741Z,98264.44
2022-10-11T18:07:18.954Z,98265.88
2022-10-11T18:09:47.914Z,98268.56
2022-10-11T18:12:17.360Z,98264.69
2022-10-11T18:14:48.342Z,98273.19
2022-10-11T18:17:18.111Z,98274.38
2022-10-11T18:19:47.533Z,98269.50
2022-10-11T18:22:17.681Z,98275.16
2022-10-11T18:24:47.932Z,98275.22
2022-10-11T18:27:18.771Z,98269.88
2022-10-11T18:29:50.416Z,98265.16
2022-10-11T18:32:21.006Z,98270.28
2022-10-11T18:34:50.679Z,98267.03
2022-10-11T18:37:20.043Z,98268.66
2022-10-11T18:39:49.524Z,98275.75
2022-10-11T18:42:20.328Z,98269.69
2022-10-11T18:44:50.883Z,98270.03
2022-10-11T18:47:20.186Z,98274.38
2022-10-11T18:49:49.410Z,98274.47
2022-10-11T18:52:18.838Z,98266.44
2022-10-11T18:54:48.127Z,98267.09
2022-10-11T18:57:17.789Z,98262.50
2022-10-11T18:59:47.335Z,98262.16
2022-10-11T19:02:18.408Z,98267.63
2022-10-11T19:04:52.480Z,98266.69
2022-10-11T19:07:22.351Z,98268.84
2022-10-11T19:09:51.469Z,98274.66
2022-10-11T19:12:21.046Z,98270.91
2022-10-11T19:14:50.275Z,98270.91
2022-10-11T19:17:22.800Z,98273.28
2022-10-11T19:19:52.563Z,98278.69
2022-10-11T19:22:21.653Z,98278.06
2022-10-11T19:24:51.011Z,98280.81
2022-10-11T19:27:22.280Z,98283.56
2022-10-11T19:29:51.321Z,98287.47
2022-10-11T19:32:22.492Z,98285.19
2022-10-11T19:34:52.663Z,98287.56
2022-10-11T19:37:21.792Z,98292.38
2022-10-11T19:39:51.043Z,98291.25
2022-10-11T19:42:21.324Z,98287.41
2022-10-11T19:44:50.486Z,98289.72
2022-10-11T19:47:21.607Z,98295.69
2022-10-11T19:49:50.749Z,98292.94
2022-10-11T19:52:20.140Z,98293.81
2022-10-11T19:54:49.302Z,98298.09
2022-10-11T19:57:18.671Z,98298.53
2022-10-11T19:59:47.871Z,98301.00
2022-10-11T20:02:17.803Z,98297.31
2022-10-11T20:04:53.169Z,98291.94
2022-10-11T20:07:23.530Z,98296.72
2022-10-11T20:09:52.646Z,98300.75
2022-10-11T20:12:21.841Z,98294.66
2022-10-11T20:14:51.283Z,98298.75
2022-10-11T20:17:20.690Z,98289.88
2022-10-11T20:19:52.782Z,98292.63
2022-10-11T20:22:21.611Z,98286.03
2022-10-11T20:24:50.744Z,98291.00
2022-10-11T20:27:20.209Z,98298.25
2022-10-11T20:29:50.127Z,98299.09
2022-10-11T20:32:19.319Z,98301.44
2022-10-11T20:34:49.885Z,98310.03
2022-10-11T20:37:19.245Z,98309.19
2022-10-11T20:39:48.454Z,98300.31
2022-10-11T20:42:17.600Z,98311.69
2022-10-11T20:44:48.274Z,98313.22
2022-10-11T20:47:17.948Z,98302.53
2022-10-11T20:49:47.149Z,98309.97
2022-10-11T20:52:18.105Z,98301.44
2022-10-11T20:54:47.956Z,98305.78
2022-10-11T20:57:17.275Z,98303.38
2022-10-11T20:59:46.183Z,98306.91
2022-10-11T21:02:18.781Z,98314.06
2022-10-11T21:04:49.910Z,98315.34
2022-10-11T21:07:22.783Z,98316.34
2022-10-11T21:09:52.041Z,98310.88
2022-10-11T21:12:21.267Z,98307.03
2022-10-11T21:14:50.622Z,98309.44
2022-10-11T21:17:19.822Z,98318.91
2022-10-11T21:19:49.309Z,98311.53
2022-10-11T21:22:18.707Z,98303.97
2022-10-11T21:24:49.428Z,98310.03
2022-10-11T21:27:18.835Z,98302.59
2022-10-11T21:29:48.323Z,98309.97
2022-10-11T21:32:17.577Z,98301.66
2022-10-11T21:34:47.321Z,98310.53
2022-10-11T21:37:16.614Z,98305.41
2022-10-11T21:39:46.174Z,98304.72
2022-10-11T21:42:17.349Z,98295.66
2022-10-11T21:44:46.919Z,98296.75
2022-10-11T21:47:16.716Z,98293.97
2022-10-11T21:49:46.286Z,98302.84
2022-10-11T21:52:15.876Z,98299.00
2022-10-11T21:54:45.356Z,98300.78
2022-10-11T21:57:15.991Z,98300.75
2022-10-11T21:59:45.374Z,98302.13
2022-10-11T22:02:14.682Z,98296.94
2022-10-11T22:04:44.062Z,98303.91
2022-10-11T22:07:13.373Z,98311.13
2022-10-11T22:09:42.709Z,98313.97
2022-10-11T22:12:12.504Z,98309.00
2022-10-11T22:14:43.210Z,98316.00
2022-10-11T22:17:12.791Z,98312.59
2022-10-11T22:19:42.468Z,98317.16
2022-10-11T22:22:12.034Z,98313.56
2022-10-11T22:24:41.279Z,98319.31
2022-10-11T22:27:10.510Z,98319.19
2022-10-11T22:29:39.854Z,98315.19
2022-10-11T22:32:10.565Z,98315.69
2022-10-11T22:34:39.771Z,98313.63
2022-10-11T22:37:09.265Z,98309.72
2022-10-11T22:39:38.524Z,98310.25
2022-10-11T22:42:07.819Z,98309.47
2022-10-11T22:44:37.055Z,98309.38
2022-10-11T22:47:06.715Z,98307.53
2022-10-11T22:49:37.543Z,98307.97
2022-10-11T22:52:06.987Z,98304.09
2022-10-11T22:54:36.554Z,98307.75
2022-10-11T22:57:06.164Z,98299.22
2022-10-11T22:59:35.592Z,98301.47
2022-10-11T23:02:07.721Z,98298.84
2022-10-11T23:04:38.467Z,98297.47
2022-10-11T23:07:08.295Z,98299.97
2022-10-11T23:09:37.533Z,98295.91
2022-10-11T23:12:07.407Z,98296.88
2022-10-11T23:14:36.699Z,98302.28
2022-10-11T23:17:05.974Z,98298.97
2022-10-11T23:19:36.957Z,98300.88
2022-10-11T23:22:11.590Z,98305.03
2022-10-11T23:24:40.897Z,98296.72
2022-10-11T23:27:10.707Z,98299.81
2022-10-11T23:29:41.073Z,98301.31
2022-10-11T23:32:11.022Z,98306.56
2022-10-11T23:34:40.373Z,98305.56
2022-10-11T23:37:11.342Z,98304.78
2022-10-11T23:39:40.658Z,98311.53
2022-10-11T23:42:09.886Z,98311.94
2022-10-11T23:44:40.326Z,98317.41
2022-10-11T23:47:09.608Z,98321.78
2022-10-11T23:49:38.815Z,98322.31
2022-10-11T23:52:08.502Z,98320.84
2022-10-11T23:54:39.509Z,98321.19
2022-10-11T23:57:08.711Z,98323.56
2022-10-11T23:59:38.053Z,98325.13
